Monday, January 22, 2018, 9:09 AM EST
Back to Local

KLGA, New York La Guardia Airport

Location: Astoria, NY, United States Lat: 40.783
Local Time: 9:09 AM EST (14:09 GMT) Lon: -73.883
Time Zone: US/Eastern Elev: 22 ft

Show me the last for .
Show Decoded

2018-01-22 08:51 METAR KLGA 221351Z 07008KT 6SM BR FEW075 OVC095 04/02 A3019 RMK AO2 SLP223
                 T00390017 =
2018-01-22 07:51 METAR KLGA 221251Z 07007KT 6SM BR FEW075 OVC095 04/02 A3017 RMK AO2 SLP217
                 T00390017 =
2018-01-22 06:51 METAR KLGA 221151Z 05006KT 7SM OVC100 04/01 A3015 RMK AO2 SLP210 60000 T00390011
                 10050 20033 53008 =
2018-01-22 05:51 METAR KLGA 221051Z 07006KT 6SM BR OVC100 03/01 A3015 RMK AO2 SLP207 T00330011 =
2018-01-22 04:51 METAR KLGA 220951Z 08007KT 7SM OVC095 03/01 A3013 RMK AO2 RAB0857E19 SLP203
                 P0000 T00330011 =
2018-01-22 03:51 METAR KLGA 220851Z 06007KT 7SM OVC060 03/01 A3013 RMK AO2 RAE18 SLP202 P0000
                 60000 T00330011 58009 =
2018-01-22 02:51 METAR KLGA 220751Z 06003KT 8SM -RA BKN060 OVC075 04/01 A3014 RMK AO2 RAB06E19B47
                 SLP206 P0000 T00390011 =
2018-01-22 01:51 METAR KLGA 220651Z 05006KT 9SM BKN050 BKN060 OVC075 04/01 A3014 RMK AO2 RAE39
                 SLP207 P0000 T00440011 =
2018-01-22 00:51 METAR KLGA 220551Z 06006KT 10SM -RA OVC048 05/01 A3015 RMK AO2 RAB48 SLP210
                 P0000 60000 T00500006 10100 20050 56006 =
2018-01-21 23:51 METAR KLGA 220451Z 08003KT 10SM OVC041 08/02 A3016 RMK AO2 RAB39E49 SLP213 P0000
                 T00780017 401110056 =
2018-01-21 22:51 METAR KLGA 220351Z 17004KT 10SM OVC041 08/01 A3016 RMK AO2 SLP214 T00830011 =
2018-01-21 21:51 METAR KLGA 220251Z 19005KT 10SM OVC038 08/00 A3017 RMK AO2 SLP217 T00830000
                 51007 =
2018-01-21 20:51 METAR KLGA 220151Z 18007KT 10SM OVC035 09/00 A3017 RMK AO2 SLP216 T00890000 =
2018-01-21 19:51 METAR KLGA 220051Z 18006KT 10SM OVC034 08/01 A3018 RMK AO2 SLP218 T00830006 =
2018-01-21 18:51 METAR KLGA 212351Z 09006KT 10SM BKN045 BKN250 09/M01 A3015 RMK AO2 SLP210
                 T00941006 10111 20083 50008 =
2018-01-21 17:51 METAR KLGA 212251Z 06004KT 10SM BKN040 BKN080 BKN250 10/M01 A3016 RMK AO2 SLP213
                 T01001011 =
2018-01-21 16:51 METAR KLGA 212151Z 00000KT 10SM FEW075 BKN250 09/M02 A3014 RMK AO2 SLP206
                 T00941017 =
2018-01-21 15:51 METAR KLGA 212051Z 01003KT 10SM SCT065 BKN250 09/M01 A3013 RMK AO2 SLP201
                 T00891011 56005 =
2018-01-21 14:51 METAR KLGA 211951Z 32003KT 10SM FEW090 SCT200 BKN250 11/M02 A3013 RMK AO2 SLP202
                 T01111017 =
2018-01-21 13:51 METAR KLGA 211851Z 32004KT 10SM FEW200 BKN250 10/M02 A3013 RMK AO2 SLP203
                 T01001017 =
2018-01-21 12:51 METAR KLGA 211751Z 32004KT 10SM FEW200 BKN250 09/M02 A3014 RMK AO2 SLP207
                 T00891017 10094 20056 58013 =
2018-01-21 11:51 METAR KLGA 211651Z 31006KT 10SM SCT200 BKN250 08/M02 A3017 RMK AO2 SLP215
                 T00831017 =
2018-01-21 10:51 METAR KLGA 211551Z 32008KT 10SM SCT200 BKN250 08/M02 A3019 RMK AO2 SLP221
                 T00781017 =
2018-01-21 09:51 METAR KLGA 211451Z 30005KT 10SM SCT200 BKN250 07/M01 A3018 RMK AO2 SLP220
                 T00721011 52015 =

Support USWX by starting your Amazon purchase here.